CheckWX is a tool to help pilots better visualize weather data.  It is not intended as a substitute for an official pre-flight weather briefing.

06:50:34 UTC

GMFM TAF
Bassatine Airport
Meknes, Morocco
TAF GMFM 160500Z 1606/1712 02004KT CAVOK BECMG 1614/1618 31012KT FEW023 BECMG 1618/1622 32006KT CAVOK

Jun-16@
06:00 UTC

Jun-16 @ 06:00 UTC

Jun-16@
14:00 UTC

Jun-16 @ 14:00 UTC

TAF GMFM 160500Z 1606/1712 02004KT CAVOK
Wind
  • 020° at 4 KTS
Conditions
No significant weather
Cloud Levels
  • No significant clouds

Jun-16@
14:00 UTC

Jun-16 @ 14:00 UTC

Jun-16@
18:00 UTC

Jun-16 @ 18:00 UTC

BECMG 1614/1618 31012KT FEW023

Becoming

Becoming Conditions expected by Sun, Jun 16, 2019 @ 18:00 UTC

Wind
  • 310° at 12 KTS
Conditions
No significant weather
Cloud Levels
  • Few at 2,300' AGL

Jun-16@
18:00 UTC

Jun-16 @ 18:00 UTC

Jun-17@
12:00 UTC

Jun-17 @ 12:00 UTC

BECMG 1618/1622 32006KT CAVOK

Becoming

Becoming Conditions expected by Sun, Jun 16, 2019 @ 22:00 UTC

Wind
  • 320° at 6 KTS
Conditions
No significant weather
Cloud Levels
  • No significant clouds